Time;durP1;ratioP1;P1;durP2;ratioP2;P2;SDS_P1;SDS_P2;PMS_P1;PMS_P2;Temp;Humidity;BMP_temperature;BMP_pressure;BME280_temperature;BME280_humidity;BME280_pressure;Samples;Min_cycle;Max_cycle;Signal;HPM_P1;HPM_P2
2023/03/27 00:01:14;;;;;;;5.97;3.42;;;;;;;11.49;100.00;98759.31;5108411;28;20038;-70
2023/03/27 00:03:39;;;;;;;8.65;3.75;;;;;;;11.44;100.00;98742.88;5108244;28;20051;-71
2023/03/27 00:06:11;;;;;;;5.55;3.00;;;;;;;11.33;100.00;98719.16;5108505;28;20076;-70
2023/03/27 00:08:37;;;;;;;4.85;3.10;;;;;;;11.43;100.00;98728.66;5107987;28;20112;-70
2023/03/27 00:11:04;;;;;;;6.53;2.85;;;;;;;11.37;100.00;98715.94;5108212;28;20035;-71
2023/03/27 00:13:30;;;;;;;5.85;2.80;;;;;;;11.44;100.00;98719.56;5107723;28;20035;-71
2023/03/27 00:15:56;;;;;;;5.72;2.88;;;;;;;11.41;100.00;98719.06;5106812;28;20036;-71
2023/03/27 00:18:26;;;;;;;4.93;2.60;;;;;;;11.38;100.00;98712.22;5107858;28;20027;-71
2023/03/27 00:20:52;;;;;;;4.25;2.80;;;;;;;11.34;100.00;98704.72;5108298;28;20023;-71
2023/03/27 00:23:18;;;;;;;4.85;3.10;;;;;;;11.18;100.00;98669.94;5106518;28;20042;-71
2023/03/27 00:25:48;;;;;;;5.93;3.20;;;;;;;11.36;100.00;98703.50;5106827;28;20065;-71
2023/03/27 00:28:14;;;;;;;4.75;2.53;;;;;;;11.38;100.00;98712.22;5106441;28;20023;-71
2023/03/27 00:30:40;;;;;;;4.68;3.13;;;;;;;11.36;100.00;98708.06;5108218;28;20032;-70
2023/03/27 00:33:07;;;;;;;5.28;2.70;;;;;;;11.32;100.00;98694.16;5106204;28;20398;-70
2023/03/27 00:35:33;;;;;;;5.55;2.42;;;;;;;11.34;100.00;98694.81;5107435;28;20371;-68
2023/03/27 00:37:58;;;;;;;5.57;2.67;;;;;;;11.25;100.00;98685.16;5103601;28;20072;-69
2023/03/27 00:40:24;;;;;;;3.47;2.25;;;;;;;11.27;100.00;98671.56;5105781;28;20126;-68
2023/03/27 00:42:51;;;;;;;5.35;2.70;;;;;;;11.26;100.00;98661.84;5107584;28;20062;-69
2023/03/27 00:45:19;;;;;;;3.53;2.35;;;;;;;11.25;100.00;98652.09;5107159;28;20036;-69
2023/03/27 00:47:48;;;;;;;4.40;2.50;;;;;;;11.28;100.00;98641.00;5107213;28;20502;-68
2023/03/27 00:50:19;;;;;;;4.30;2.40;;;;;;;11.30;100.00;98639.84;5107148;28;20031;-69
2023/03/27 00:52:50;;;;;;;3.75;2.28;;;;;;;11.24;100.00;98626.28;5105962;28;20031;-70
2023/03/27 00:55:18;;;;;;;6.53;3.15;;;;;;;11.22;100.00;98639.88;5107162;28;20425;-70
2023/03/27 00:57:48;;;;;;;5.35;3.15;;;;;;;11.19;100.00;98621.47;5107175;28;20045;-70
2023/03/27 01:00:15;;;;;;;5.45;3.25;;;;;;;11.13;100.00;98610.63;5106915;28;20076;-69
2023/03/27 01:02:43;;;;;;;5.85;3.00;;;;;;;11.21;100.00;98613.22;5106962;28;20425;-70
2023/03/27 01:05:10;;;;;;;6.00;2.90;;;;;;;11.19;100.00;98607.22;5107697;28;20031;-72
2023/03/27 01:07:36;;;;;;;4.20;2.65;;;;;;;11.11;100.00;98589.34;5106997;28;20413;-72
2023/03/27 01:10:05;;;;;;;5.63;2.80;;;;;;;11.16;100.00;98583.44;5106883;28;20036;-72
2023/03/27 01:12:59;;;;;;;4.32;2.25;;;;;;;11.12;100.00;98558.81;5105237;28;20022;-71
2023/03/27 01:15:36;;;;;;;4.25;2.72;;;;;;;11.10;100.00;98546.59;5103509;28;20047;-72
2023/03/27 01:18:20;;;;;;;5.78;2.55;;;;;;;11.06;100.00;98546.13;5106777;28;20490;-72
2023/03/27 01:21:22;;;;;;;3.78;2.40;;;;;;;11.07;100.00;98549.63;5105265;28;20398;-72
2023/03/27 01:24:25;;;;;;;3.45;2.22;;;;;;;11.03;100.00;98570.63;5105134;28;20028;-72
2023/03/27 01:27:00;;;;;;;3.50;2.17;;;;;;;11.03;100.00;98564.44;5106365;28;20023;-72
2023/03/27 01:29:37;;;;;;;2.83;1.85;;;;;;;11.00;100.00;98562.13;5106638;28;20023;-72
2023/03/27 01:32:24;;;;;;;3.22;1.90;;;;;;;11.01;100.00;98569.13;5107166;28;20031;-72
2023/03/27 01:35:22;;;;;;;3.55;1.92;;;;;;;10.96;100.00;98569.66;5106709;28;20039;-72
2023/03/27 01:37:49;;;;;;;5.80;2.30;;;;;;;11.01;100.00;98574.50;5105213;28;20032;-72
2023/03/27 01:40:19;;;;;;;5.13;2.17;;;;;;;10.92;100.00;98564.84;5106601;28;20047;-72
2023/03/27 01:42:48;;;;;;;3.92;2.47;;;;;;;10.76;100.00;98539.00;5106077;28;20031;-72
2023/03/27 01:45:25;;;;;;;3.10;2.00;;;;;;;10.77;100.00;98539.84;5106405;28;20164;-72
2023/03/27 01:48:03;;;;;;;3.20;2.22;;;;;;;10.85;100.00;98550.50;5104294;28;20360;-71
2023/03/27 01:50:39;;;;;;;5.32;2.47;;;;;;;10.84;100.00;98551.50;5106046;28;20039;-71
2023/03/27 01:53:12;;;;;;;3.67;2.38;;;;;;;10.78;100.00;98520.88;5105743;28;20459;-72
2023/03/27 01:55:43;;;;;;;6.10;2.40;;;;;;;10.82;100.00;98516.81;5105618;28;20077;-72
2023/03/27 01:58:16;;;;;;;2.97;2.30;;;;;;;10.84;100.00;98520.16;5105651;28;20379;-72
2023/03/27 02:00:45;;;;;;;3.60;2.55;;;;;;;10.74;100.00;98505.34;5106112;28;20038;-72
2023/03/27 02:03:30;;;;;;;3.40;2.28;;;;;;;10.81;100.00;98528.53;5106108;28;20035;-70
2023/03/27 02:06:03;;;;;;;2.95;2.28;;;;;;;10.79;100.00;98521.72;5106238;28;20478;-70
2023/03/27 02:08:31;;;;;;;4.30;2.35;;;;;;;10.60;100.00;98479.28;5105697;28;20049;-70
2023/03/27 02:10:58;;;;;;;4.20;2.35;;;;;;;10.82;100.00;98522.19;5106236;28;20035;-70
2023/03/27 02:13:41;;;;;;;5.15;2.50;;;;;;;10.81;100.00;98511.66;5105771;28;20034;-70
2023/03/27 02:16:10;;;;;;;3.58;2.40;;;;;;;10.81;100.00;98508.97;5104849;28;20728;-70
2023/03/27 02:18:46;;;;;;;4.53;2.85;;;;;;;10.75;100.00;98504.31;5103988;28;20443;-70
2023/03/27 02:21:13;;;;;;;4.97;2.70;;;;;;;10.65;100.00;98496.53;5103929;28;20057;-70
2023/03/27 02:23:39;;;;;;;5.55;2.80;;;;;;;10.77;100.00;98511.16;5104799;28;20080;-70
2023/03/27 02:26:07;;;;;;;5.75;2.90;;;;;;;10.78;100.00;98512.00;5105114;28;20039;-71
2023/03/27 02:28:40;;;;;;;4.25;2.83;;;;;;;10.79;100.00;98513.66;5103523;28;20031;-71
2023/03/27 02:31:49;;;;;;;5.25;2.70;;;;;;;10.75;100.00;98490.91;5105384;28;20015;-71
2023/03/27 02:34:20;;;;;;;7.22;3.10;;;;;;;10.74;100.00;98475.84;5105051;28;20019;-70
2023/03/27 02:37:02;;;;;;;5.15;3.50;;;;;;;10.76;100.00;98474.66;5102198;28;20541;-70
2023/03/27 02:39:51;;;;;;;5.00;3.80;;;;;;;10.74;100.00;98465.94;5103421;28;20020;-69
2023/03/27 02:42:20;;;;;;;6.13;3.13;;;;;;;10.72;100.00;98459.94;5104622;28;20027;-69
2023/03/27 02:45:02;;;;;;;6.53;3.40;;;;;;;10.73;100.00;98456.25;5103482;28;20924;-69
2023/03/27 02:47:38;;;;;;;4.80;3.47;;;;;;;10.73;100.00;98453.56;5104878;28;20058;-69
2023/03/27 02:50:26;;;;;;;4.88;3.15;;;;;;;10.71;100.00;98457.44;5105079;28;20055;-69
2023/03/27 02:52:57;;;;;;;4.95;3.40;;;;;;;10.71;100.00;98460.13;5105293;28;20019;-68
2023/03/27 02:55:28;;;;;;;7.55;4.13;;;;;;;10.63;100.00;98436.06;5103498;28;20036;-68
2023/03/27 02:58:02;;;;;;;5.05;3.60;;;;;;;10.66;100.00;98441.91;5108405;28;20031;-69
2023/03/27 03:00:31;;;;;;;7.90;4.10;;;;;;;10.68;100.00;98457.81;5107215;28;20058;-69
2023/03/27 03:03:26;;;;;;;7.15;4.45;;;;;;;10.68;100.00;98455.13;5107326;28;20339;-69
2023/03/27 03:05:53;;;;;;;4.80;3.28;;;;;;;10.62;100.00;98445.97;5076822;28;20034;-70
2023/03/27 03:08:20;;;;;;;6.88;4.10;;;;;;;10.65;100.00;98442.91;5108850;28;20031;-69
2023/03/27 03:10:47;;;;;;;5.03;3.80;;;;;;;10.70;100.00;98451.22;5107454;28;20035;-70
2023/03/27 03:13:16;;;;;;;4.28;3.22;;;;;;;10.68;100.00;98442.53;5108762;28;20044;-69
2023/03/27 03:15:44;;;;;;;4.18;3.70;;;;;;;10.69;100.00;98440.69;5107613;28;20108;-68
2023/03/27 03:18:11;;;;;;;5.05;4.30;;;;;;;10.64;100.00;98435.06;5106755;28;20072;-69
2023/03/27 03:20:37;;;;;;;4.32;3.92;;;;;;;10.72;100.00;98454.59;5106820;28;20118;-69
2023/03/27 03:23:05;;;;;;;4.63;4.03;;;;;;;10.70;100.00;98450.38;5107607;28;20072;-68
2023/03/27 03:25:31;;;;;;;6.30;4.38;;;;;;;10.77;100.00;98467.44;5106637;28;20032;-68
2023/03/27 03:27:59;;;;;;;6.68;4.30;;;;;;;10.73;100.00;98466.97;5108087;28;20027;-69
2023/03/27 03:30:29;;;;;;;4.60;3.80;;;;;;;10.79;100.00;98468.06;5105888;28;20849;-68
2023/03/27 03:32:55;;;;;;;7.43;4.43;;;;;;;10.74;100.00;98468.63;5108390;28;20023;-68
2023/03/27 03:35:23;;;;;;;8.13;4.55;;;;;;;10.70;100.00;98464.63;5105874;28;20115;-68
2023/03/27 03:37:50;;;;;;;6.32;4.63;;;;;;;10.70;100.00;98463.78;5106385;28;20133;-69
2023/03/27 03:40:17;;;;;;;6.28;3.85;;;;;;;10.67;100.00;98467.69;5106477;28;20031;-68
2023/03/27 03:42:47;;;;;;;4.13;3.50;;;;;;;10.66;100.00;98463.34;5105940;28;20080;-68
2023/03/27 03:45:13;;;;;;;6.35;3.88;;;;;;;10.63;100.00;98452.97;5107217;28;20391;-70
2023/03/27 03:47:39;;;;;;;5.82;3.65;;;;;;;10.65;100.00;98459.00;5105607;28;20051;-71
2023/03/27 03:50:05;;;;;;;5.50;3.83;;;;;;;10.64;100.00;98453.81;5107111;28;20039;-70
2023/03/27 03:52:31;;;;;;;7.30;3.72;;;;;;;10.64;100.00;98457.31;5105583;28;20043;-70
2023/03/27 03:54:56;;;;;;;4.85;3.75;;;;;;;10.56;100.00;98440.47;5107316;28;20482;-70
2023/03/27 03:57:21;;;;;;;5.75;3.85;;;;;;;10.61;100.00;98449.63;5107523;28;20020;-70
2023/03/27 03:59:47;;;;;;;4.95;3.85;;;;;;;10.58;100.00;98439.25;5108223;28;20034;-70
2023/03/27 04:02:27;;;;;;;10.80;4.05;;;;;;;10.63;100.00;98446.78;5107800;28;20041;-70
2023/03/27 04:04:59;;;;;;;6.18;3.30;;;;;;;10.61;100.00;98435.41;5106979;28;20020;-71
2023/03/27 04:07:30;;;;;;;3.80;3.25;;;;;;;10.60;100.00;98442.63;5107663;28;20631;-70
2023/03/27 04:09:58;;;;;;;3.17;2.85;;;;;;;10.57;100.00;98434.09;5108212;28;20467;-71
2023/03/27 04:12:25;;;;;;;3.97;3.42;;;;;;;10.60;100.00;98434.56;5107339;28;20376;-71
2023/03/27 04:14:52;;;;;;;4.15;3.05;;;;;;;10.59;100.00;98435.59;5108354;27;20024;-70
2023/03/27 04:17:17;;;;;;;6.00;3.60;;;;;;;10.58;100.00;98433.09;5107724;28;20031;-71
2023/03/27 04:19:45;;;;;;;5.50;3.67;;;;;;;10.51;100.00;98422.25;5107980;28;20517;-70
2023/03/27 04:22:11;;;;;;;4.05;3.17;;;;;;;10.52;100.00;98418.56;5108192;28;20112;-69
2023/03/27 04:24:37;;;;;;;4.50;3.78;;;;;;;10.54;100.00;98419.22;5107643;28;20032;-70
2023/03/27 04:27:03;;;;;;;4.45;3.65;;;;;;;10.50;100.00;98406.34;5107973;28;20172;-70
2023/03/27 04:29:33;;;;;;;5.72;4.10;;;;;;;10.54;100.00;98416.53;5103215;28;20459;-70
2023/03/27 04:31:59;;;;;;;5.55;4.07;;;;;;;10.53;100.00;98412.19;5107804;28;20031;-70
2023/03/27 04:34:25;;;;;;;5.20;4.30;;;;;;;10.55;100.00;98414.69;5107590;28;20043;-70
2023/03/27 04:36:51;;;;;;;5.50;3.92;;;;;;;10.53;100.00;98409.50;5103950;28;20420;-70
2023/03/27 04:39:17;;;;;;;4.85;4.05;;;;;;;10.57;100.00;98418.00;5107360;28;20042;-70
2023/03/27 04:41:48;;;;;;;6.38;4.20;;;;;;;10.51;100.00;98389.28;5107146;28;20122;-70
2023/03/27 04:44:16;;;;;;;5.03;4.13;;;;;;;10.59;100.00;98397.22;5107319;28;20023;-72
2023/03/27 04:46:43;;;;;;;5.97;4.28;;;;;;;10.60;100.00;98396.19;5106991;28;20043;-71
2023/03/27 04:49:09;;;;;;;6.35;4.82;;;;;;;10.59;100.00;98391.88;5107421;28;20024;-72
2023/03/27 04:51:34;;;;;;;7.95;5.35;;;;;;;10.53;100.00;98381.88;5107357;28;20497;-71
2023/03/27 04:54:03;;;;;;;9.88;5.57;;;;;;;10.57;100.00;98383.16;5107298;28;20019;-72
2023/03/27 04:56:29;;;;;;;7.70;5.00;;;;;;;10.52;100.00;98375.69;5106784;28;20023;-71
2023/03/27 04:58:55;;;;;;;9.63;6.10;;;;;;;10.56;100.00;98379.66;5107258;28;20394;-71
2023/03/27 05:01:21;;;;;;;5.93;5.20;;;;;;;10.56;100.00;98371.63;5108233;28;20115;-71
2023/03/27 05:03:48;;;;;;;6.60;5.90;;;;;;;10.58;100.00;98374.94;5106473;28;20019;-71
2023/03/27 05:06:14;;;;;;;7.55;5.63;;;;;;;10.53;100.00;98355.06;5105374;28;20083;-71
2023/03/27 05:08:40;;;;;;;6.93;5.50;;;;;;;10.54;100.00;98360.25;5106428;28;20080;-71
2023/03/27 05:11:06;;;;;;;7.18;5.18;;;;;;;10.54;100.00;98352.19;5106508;28;20088;-71
2023/03/27 05:13:32;;;;;;;8.23;5.75;;;;;;;10.57;100.00;98351.84;5106562;28;20035;-72
2023/03/27 05:16:00;;;;;;;6.57;5.45;;;;;;;10.50;100.00;98340.19;5106606;28;20035;-71
2023/03/27 05:18:26;;;;;;;6.90;5.80;;;;;;;10.55;100.00;98343.13;5106281;28;20059;-71
2023/03/27 05:20:52;;;;;;;6.70;5.38;;;;;;;10.56;100.00;98338.63;5105790;28;20482;-71
2023/03/27 05:23:17;;;;;;;7.13;5.78;;;;;;;10.57;100.00;98345.63;5107019;28;20041;-71
2023/03/27 05:25:44;;;;;;;8.90;5.85;;;;;;;10.46;100.00;98325.50;5106242;27;20038;-71
2023/03/27 05:28:09;;;;;;;7.50;5.80;;;;;;;10.45;100.00;98325.69;5107074;28;20050;-70
2023/03/27 05:30:35;;;;;;;7.65;6.38;;;;;;;10.50;100.00;98337.50;5105557;28;20027;-71
2023/03/27 05:33:00;;;;;;;6.45;5.82;;;;;;;10.56;100.00;98344.81;5101783;28;20024;-71
2023/03/27 05:35:29;;;;;;;8.02;6.30;;;;;;;10.55;100.00;98336.97;5102719;28;20020;-71
2023/03/27 05:37:56;;;;;;;7.55;6.45;;;;;;;10.57;100.00;98333.09;5099047;28;20058;-71
2023/03/27 05:40:26;;;;;;;6.38;5.78;;;;;;;10.58;100.00;98329.38;5104558;28;20052;-71
2023/03/27 05:42:53;;;;;;;6.68;5.97;;;;;;;10.55;100.00;98318.19;5103954;28;20036;-71
2023/03/27 05:45:20;;;;;;;7.72;6.00;;;;;;;10.56;100.00;98318.03;5105426;28;20023;-71
2023/03/27 05:47:47;;;;;;;6.28;5.68;;;;;;;10.59;100.00;98308.78;5104832;28;20051;-71
2023/03/27 05:50:15;;;;;;;7.53;5.43;;;;;;;10.58;100.00;98302.56;5100409;28;20047;-71
2023/03/27 05:52:40;;;;;;;6.05;5.32;;;;;;;10.55;100.00;98284.19;5102208;28;20058;-71
2023/03/27 05:55:07;;;;;;;7.28;5.82;;;;;;;10.56;100.00;98288.53;5104498;28;20031;-71
2023/03/27 05:57:36;;;;;;;8.48;7.18;;;;;;;10.54;100.00;98281.69;5103583;28;20026;-69
2023/03/27 06:00:06;;;;;;;8.70;6.47;;;;;;;10.53;100.00;98285.38;5106498;28;20039;-69
2023/03/27 06:02:33;;;;;;;8.18;6.35;;;;;;;10.52;100.00;98278.38;5103566;28;20047;-69
2023/03/27 06:05:00;;;;;;;6.35;5.30;;;;;;;10.44;100.00;98281.97;5106643;28;20100;-69
2023/03/27 06:07:26;;;;;;;7.03;4.88;;;;;;;10.46;100.00;98268.38;5106618;28;20042;-69
2023/03/27 06:09:52;;;;;;;6.93;5.40;;;;;;;10.47;100.00;98278.06;5106188;28;20706;-68
2023/03/27 06:12:18;;;;;;;5.30;4.70;;;;;;;10.39;100.00;98270.97;5103580;28;20698;-69
2023/03/27 06:14:44;;;;;;;6.07;4.93;;;;;;;10.41;100.00;98266.25;5099944;28;20028;-69
2023/03/27 06:17:09;;;;;;;6.60;4.53;;;;;;;10.49;100.00;98286.78;5100613;28;20036;-69
2023/03/27 06:19:35;;;;;;;8.25;4.55;;;;;;;10.45;100.00;98288.16;5096713;28;20053;-69
2023/03/27 06:22:00;;;;;;;6.03;4.60;;;;;;;10.47;100.00;98289.63;5103739;28;20106;-69
2023/03/27 06:24:26;;;;;;;6.63;4.57;;;;;;;10.49;100.00;98286.78;5105630;28;20077;-69
2023/03/27 06:26:51;;;;;;;5.60;4.85;;;;;;;10.51;100.00;98285.56;5106477;28;20023;-68
2023/03/27 06:29:17;;;;;;;7.10;5.45;;;;;;;10.43;100.00;98268.75;5104485;28;20159;-68
2023/03/27 06:31:43;;;;;;;6.43;4.47;;;;;;;10.54;100.00;98281.69;5108272;28;20394;-68
2023/03/27 06:34:09;;;;;;;6.38;5.43;;;;;;;10.53;100.00;98285.38;5109575;28;20088;-68
2023/03/27 06:36:35;;;;;;;7.70;5.32;;;;;;;10.58;100.00;98288.34;5109529;28;20395;-69
2023/03/27 06:39:03;;;;;;;6.18;4.93;;;;;;;10.52;100.00;98271.16;5109840;28;20019;-71
2023/03/27 06:41:28;;;;;;;7.32;5.00;;;;;;;10.60;100.00;98283.63;5109410;28;20088;-70
2023/03/27 06:43:54;;;;;;;7.53;5.75;;;;;;;10.60;100.00;98284.47;5109409;28;20043;-71
2023/03/27 06:46:19;;;;;;;6.90;5.60;;;;;;;10.58;100.00;98283.81;5108914;28;20055;-71
2023/03/27 06:48:46;;;;;;;8.50;6.10;;;;;;;10.51;100.00;98271.34;5106970;28;20032;-71
2023/03/27 06:51:12;;;;;;;6.75;5.47;;;;;;;10.52;100.00;98273.84;5108932;28;20111;-71
2023/03/27 06:53:37;;;;;;;9.30;6.45;;;;;;;10.59;100.00;98282.81;5108906;28;20118;-71
2023/03/27 06:56:03;;;;;;;7.85;6.50;;;;;;;10.60;100.00;98272.91;5109346;28;20118;-71
2023/03/27 06:58:28;;;;;;;9.02;6.00;;;;;;;10.60;100.00;98272.91;5108939;28;20024;-71
2023/03/27 07:00:54;;;;;;;7.13;5.68;;;;;;;10.68;100.00;98276.31;5109694;28;20052;-70
2023/03/27 07:03:21;;;;;;;5.85;5.13;;;;;;;10.68;100.00;98279.00;5108702;28;20115;-69
2023/03/27 07:05:48;;;;;;;5.72;4.80;;;;;;;10.60;100.00;98271.06;5108560;28;20019;-69
2023/03/27 07:08:15;;;;;;;6.35;5.18;;;;;;;10.68;100.00;98289.72;5108894;28;20019;-69
2023/03/27 07:10:40;;;;;;;6.38;5.60;;;;;;;10.66;100.00;98296.28;5108334;28;20042;-69
2023/03/27 07:13:06;;;;;;;8.10;6.18;;;;;;;10.64;100.00;98293.00;5107364;28;20024;-69
2023/03/27 07:15:31;;;;;;;9.60;7.13;;;;;;;10.62;100.00;98273.56;5108212;28;20032;-69
2023/03/27 07:18:00;;;;;;;9.32;6.75;;;;;;;10.55;100.00;98280.69;5107225;28;20031;-69
2023/03/27 07:20:27;;;;;;;7.95;5.95;;;;;;;10.61;100.00;98296.03;5105257;28;20104;-69
2023/03/27 07:22:55;;;;;;;4.88;4.38;;;;;;;10.94;100.00;98302.69;5107387;28;20023;-69
2023/03/27 07:25:21;;;;;;;4.60;4.20;;;;;;;10.67;100.00;98279.19;5108900;28;20477;-69
2023/03/27 07:27:46;;;;;;;6.20;5.15;;;;;;;10.74;100.00;98294.34;5107212;28;20031;-69
2023/03/27 07:30:13;;;;;;;5.35;4.78;;;;;;;10.69;100.00;98301.28;5107301;28;20584;-69
2023/03/27 07:32:41;;;;;;;6.47;5.10;;;;;;;10.50;100.00;98293.78;5106915;28;20028;-69
2023/03/27 07:35:07;;;;;;;5.47;4.97;;;;;;;10.32;100.00;98288.78;5106146;28;20032;-68
2023/03/27 07:37:36;;;;;;;6.20;4.93;;;;;;;10.29;100.00;98291.00;5107837;28;20027;-71
2023/03/27 07:40:05;;;;;;;5.63;4.90;;;;;;;10.30;100.00;98303.38;5108849;28;20024;-70
2023/03/27 07:42:32;;;;;;;5.30;4.80;;;;;;;10.28;100.00;98316.09;5107656;28;20534;-72
2023/03/27 07:44:57;;;;;;;6.35;4.40;;;;;;;10.33;100.00;98319.94;5107616;28;20023;-71
2023/03/27 07:47:23;;;;;;;5.35;4.85;;;;;;;10.25;100.00;98311.13;5108403;28;20054;-72
2023/03/27 07:49:49;;;;;;;5.07;4.50;;;;;;;10.13;100.00;98283.94;5108724;28;20081;-72
2023/03/27 07:52:14;;;;;;;7.95;5.07;;;;;;;10.17;100.00;98282.56;5108650;28;20074;-71
2023/03/27 07:54:41;;;;;;;5.38;4.78;;;;;;;10.21;100.00;98283.88;5107951;28;20031;-70
2023/03/27 07:57:07;;;;;;;5.60;4.18;;;;;;;10.20;100.00;98290.25;5108335;28;20027;-71
2023/03/27 07:59:33;;;;;;;5.55;3.70;;;;;;;10.25;100.00;98309.28;5108123;27;20031;-71
2023/03/27 08:01:58;;;;;;;4.40;4.00;;;;;;;10.14;100.00;98307.03;5107024;28;20028;-71
2023/03/27 08:04:23;;;;;;;5.30;4.22;;;;;;;10.03;100.00;98290.53;5102810;28;20026;-71
2023/03/27 08:06:50;;;;;;;4.95;4.45;;;;;;;10.20;100.00;98316.19;5107657;28;20029;-71
2023/03/27 08:09:16;;;;;;;6.10;4.50;;;;;;;10.16;100.00;98315.72;5113605;28;20448;-71
2023/03/27 08:11:43;;;;;;;5.65;4.28;;;;;;;10.40;100.00;98331.59;5108119;28;20027;-72
2023/03/27 08:14:08;;;;;;;6.07;4.22;;;;;;;10.37;100.00;98331.09;5109208;28;20035;-72
2023/03/27 08:16:35;;;;;;;4.32;3.92;;;;;;;10.31;100.00;98335.34;5111285;28;20177;-69
2023/03/27 08:19:03;;;;;;;5.13;4.38;;;;;;;10.22;100.00;98339.09;5115586;28;20023;-69
2023/03/27 08:21:33;;;;;;;5.63;4.85;;;;;;;10.07;100.00;98319.50;5110271;27;20397;-70
2023/03/27 08:24:00;;;;;;;6.10;4.55;;;;;;;10.14;100.00;98332.97;5106914;28;20031;-69
2023/03/27 08:26:26;;;;;;;6.85;4.45;;;;;;;10.13;100.00;98342.84;5108068;28;20046;-69
2023/03/27 08:28:53;;;;;;;5.47;4.50;;;;;;;10.10;100.00;98343.25;5107579;28;20034;-70
2023/03/27 08:31:19;;;;;;;5.13;4.28;;;;;;;10.20;100.00;98340.31;5108337;28;20027;-70
2023/03/27 08:33:45;;;;;;;4.70;4.20;;;;;;;10.20;100.00;98343.81;5107621;28;20023;-70
2023/03/27 08:36:13;;;;;;;5.22;4.38;;;;;;;10.24;100.00;98339.75;5108359;28;20042;-70
2023/03/27 08:38:42;;;;;;;4.90;4.50;;;;;;;10.17;100.00;98327.25;5107893;28;20390;-70
2023/03/27 08:41:31;;;;;;;6.10;4.65;;;;;;;10.34;100.00;98343.03;5108542;28;20153;-71
2023/03/27 08:44:00;;;;;;;6.90;5.13;;;;;;;10.48;100.00;98344.06;5108366;28;20027;-71
2023/03/27 08:46:31;;;;;;;6.72;4.40;;;;;;;10.72;100.00;98355.38;5107902;28;20047;-71
2023/03/27 08:49:13;;;;;;;5.75;5.25;;;;;;;10.49;100.00;98343.91;5107784;28;20123;-71
2023/03/27 08:51:59;;;;;;;5.18;4.68;;;;;;;10.41;100.00;98346.63;5106341;28;20039;-71
2023/03/27 08:54:29;;;;;;;5.75;5.10;;;;;;;10.56;100.00;98349.34;5106784;28;20023;-71
2023/03/27 08:56:54;;;;;;;4.57;4.10;;;;;;;10.47;100.00;98340.56;5107758;28;20077;-71
2023/03/27 08:59:29;;;;;;;4.32;3.90;;;;;;;10.71;100.00;98350.22;5107943;28;20028;-71
2023/03/27 09:02:09;;;;;;;4.72;3.95;;;;;;;10.50;100.00;98340.19;5108076;28;20368;-70
2023/03/27 09:04:58;;;;;;;4.20;3.80;;;;;;;10.44;100.00;98345.44;5110548;28;20130;-70
2023/03/27 09:07:54;;;;;;;4.18;3.78;;;;;;;10.39;100.00;98350.50;5106987;28;20024;-72
2023/03/27 09:10:20;;;;;;;4.05;3.63;;;;;;;10.64;100.00;98346.59;5106251;28;20036;-72
2023/03/27 09:12:47;;;;;;;7.78;4.78;;;;;;;10.58;100.00;98350.00;5107702;28;20027;-72
2023/03/27 09:15:25;;;;;;;4.82;4.32;;;;;;;10.41;100.00;98341.28;5109825;28;20039;-72
2023/03/27 09:18:10;;;;;;;4.95;4.20;;;;;;;10.46;100.00;98346.94;5109436;28;20028;-72
2023/03/27 09:20:50;;;;;;;4.57;4.07;;;;;;;10.38;100.00;98338.94;5110447;28;20083;-72
2023/03/27 09:23:40;;;;;;;5.25;4.30;;;;;;;10.47;100.00;98348.59;5114227;28;20034;-69
2023/03/27 09:26:13;;;;;;;4.78;4.30;;;;;;;10.62;100.00;98341.41;5109827;28;20374;-70
2023/03/27 09:28:59;;;;;;;5.68;4.47;;;;;;;10.70;100.00;98343.16;5109349;28;20486;-70
2023/03/27 09:31:32;;;;;;;8.02;5.35;;;;;;;10.59;100.00;98338.25;5094318;28;20576;-70
2023/03/27 09:34:03;;;;;;;6.00;5.20;;;;;;;10.69;100.00;98357.59;5106438;28;20043;-71
2023/03/27 09:36:29;;;;;;;5.57;5.00;;;;;;;10.66;100.00;98342.72;5106261;28;20091;-71
2023/03/27 09:39:02;;;;;;;5.60;5.10;;;;;;;10.82;100.00;98361.31;5104245;28;20019;-71
2023/03/27 09:41:32;;;;;;;5.63;4.40;;;;;;;10.79;100.00;98368.88;5104710;28;20027;-71
2023/03/27 09:44:19;;;;;;;5.10;4.50;;;;;;;10.94;100.00;98367.84;5105878;28;20511;-71
2023/03/27 09:46:50;;;;;;;4.70;4.30;;;;;;;10.78;100.00;98376.09;5104088;28;20056;-71
2023/03/27 09:49:17;;;;;;;4.38;3.60;;;;;;;10.83;100.00;98379.06;5104602;28;20398;-71
2023/03/27 09:51:50;;;;;;;5.10;3.70;;;;;;;10.75;100.00;98392.56;5103137;28;20019;-71
2023/03/27 09:54:21;;;;;;;3.60;3.08;;;;;;;10.67;100.00;98386.41;5105734;28;20486;-71
2023/03/27 09:56:54;;;;;;;3.65;3.05;;;;;;;10.51;100.00;98367.84;5105263;28;20028;-71
2023/03/27 09:59:27;;;;;;;2.67;1.90;;;;;;;10.51;100.00;98368.66;5104895;28;20054;-71
2023/03/27 10:01:58;;;;;;;2.42;2.20;;;;;;;10.59;100.00;98390.03;5105341;28;20483;-71
2023/03/27 10:04:25;;;;;;;2.22;2.00;;;;;;;10.56;100.00;98392.22;5105886;28;20019;-71
2023/03/27 10:07:04;;;;;;;4.10;2.13;;;;;;;10.65;100.00;98400.03;5107629;28;20478;-71
2023/03/27 10:09:39;;;;;;;4.60;2.42;;;;;;;10.71;100.00;98398.47;5109636;28;20645;-71
2023/03/27 10:12:18;;;;;;;3.92;2.42;;;;;;;10.61;100.00;98412.09;5107667;28;20768;-71
2023/03/27 10:14:47;;;;;;;2.80;2.20;;;;;;;10.55;100.00;98399.41;5109790;28;20433;-71
2023/03/27 10:17:37;;;;;;;3.83;2.72;;;;;;;10.50;100.00;98419.75;5110199;28;20030;-71
2023/03/27 10:20:16;;;;;;;3.10;2.00;;;;;;;10.63;100.00;98426.16;5106486;28;20030;-71
2023/03/27 10:22:52;;;;;;;3.95;2.67;;;;;;;10.54;100.00;98423.72;5141139;27;20031;-71
2023/03/27 10:25:29;;;;;;;5.10;3.45;;;;;;;10.34;100.00;98431.44;5109969;28;20023;-71
2023/03/27 10:28:12;;;;;;;4.28;3.08;;;;;;;9.96;100.00;98389.47;5109950;28;20493;-71
2023/03/27 10:30:39;;;;;;;4.38;3.05;;;;;;;10.29;100.00;98439.16;5107727;28;20703;-71
2023/03/27 10:33:04;;;;;;;9.10;5.28;;;;;;;10.24;100.00;98416.59;5109963;28;20062;-71
2023/03/27 10:35:33;;;;;;;9.07;6.03;;;;;;;10.19;100.00;98435.06;5109242;28;20617;-72
2023/03/27 10:38:01;;;;;;;6.55;4.32;;;;;;;10.16;100.00;98430.06;5108104;28;20106;-72
2023/03/27 10:40:32;;;;;;;4.72;3.38;;;;;;;10.11;100.00;98445.81;5109972;28;20098;-72
2023/03/27 10:43:08;;;;;;;5.47;3.58;;;;;;;10.06;100.00;98441.00;5108059;28;20037;-72
2023/03/27 10:45:45;;;;;;;5.05;3.15;;;;;;;10.03;100.00;98454.72;5109625;28;20102;-72
2023/03/27 10:48:25;;;;;;;5.85;3.17;;;;;;;10.12;100.00;98458.22;5108921;28;20040;-72
2023/03/27 10:50:57;;;;;;;5.82;3.33;;;;;;;9.94;100.00;98458.47;5108903;28;20047;-72
2023/03/27 10:53:36;;;;;;;5.15;3.17;;;;;;;10.00;100.00;98455.06;5109424;28;20039;-72
2023/03/27 10:56:25;;;;;;;4.07;2.70;;;;;;;10.10;100.00;98469.13;5107923;28;20031;-71
2023/03/27 10:59:00;;;;;;;4.65;2.03;;;;;;;9.84;100.00;98471.25;5108215;28;20019;-71
2023/03/27 11:01:51;;;;;;;5.15;2.83;;;;;;;9.84;100.00;98483.78;5107631;28;20036;-71
2023/03/27 11:04:36;;;;;;;4.28;2.63;;;;;;;9.84;100.00;98486.47;5107661;28;20031;-72
2023/03/27 11:07:04;;;;;;;3.00;2.20;;;;;;;9.80;100.00;98450.34;5106992;27;20030;-71
2023/03/27 11:09:37;;;;;;;2.35;1.70;;;;;;;9.63;100.00;98470.97;5107649;28;20035;-71
2023/03/27 11:12:10;;;;;;;3.15;2.13;;;;;;;9.83;100.00;98492.84;5109118;28;20015;-71
2023/03/27 11:14:48;;;;;;;3.97;2.08;;;;;;;9.84;100.00;98500.69;5105475;28;20034;-72
2023/03/27 11:17:18;;;;;;;2.10;1.85;;;;;;;9.77;100.00;98491.66;5105994;28;20111;-72
2023/03/27 11:19:54;;;;;;;4.18;2.33;;;;;;;9.61;100.00;98486.38;5108332;28;20510;-72
2023/03/27 11:22:31;;;;;;;2.13;1.65;;;;;;;9.56;100.00;98470.03;5106980;28;20055;-71
2023/03/27 11:25:18;;;;;;;2.05;1.83;;;;;;;9.63;100.00;98505.78;5108680;28;20027;-71
2023/03/27 11:28:02;;;;;;;2.80;2.05;;;;;;;9.63;100.00;98473.66;5107720;28;20020;-71
2023/03/27 11:30:35;;;;;;;50.15;6.28;;;;;;;9.73;100.00;98489.50;5106978;28;20042;-71
2023/03/27 11:33:31;;;;;;;9.52;2.63;;;;;;;9.58;100.00;98494.78;5108592;28;20035;-71
2023/03/27 11:36:05;;;;;;;4.38;2.40;;;;;;;9.58;100.00;98504.63;5105504;28;20364;-71
2023/03/27 11:38:36;;;;;;;4.57;2.50;;;;;;;9.51;100.00;98499.13;5108146;28;20030;-71
2023/03/27 11:41:02;;;;;;;4.30;2.30;;;;;;;9.65;100.00;98509.13;5108440;28;20359;-71
2023/03/27 11:43:28;;;;;;;2.25;1.95;;;;;;;9.58;100.00;98489.41;5108634;28;20038;-71